Time;durP1;ratioP1;P1;durP2;ratioP2;P2;SDS_P1;SDS_P2;PMS_P1;PMS_P2;Temp;Humidity;BMP_temperature;BMP_pressure;BME280_temperature;BME280_humidity;BME280_pressure;Samples;Min_cycle;Max_cycle;Signal;HPM_P1;HPM_P2
2022/01/30 00:01:04;;;;;;;19.98;12.88;;;9.00;63.60;;;;;;4976373;28;20026;-80
2022/01/30 00:03:30;;;;;;;19.83;12.05;;;9.00;63.50;;;;;;4985279;28;20030;-79
2022/01/30 00:05:56;;;;;;;18.33;11.50;;;9.00;63.40;;;;;;4985601;28;20043;-79
2022/01/30 00:08:22;;;;;;;18.90;11.55;;;9.00;63.30;;;;;;4985048;28;20031;-79
2022/01/30 00:10:54;;;;;;;16.90;11.15;;;9.00;63.30;;;;;;4985322;28;20544;-79
2022/01/30 00:13:22;;;;;;;18.27;11.40;;;9.00;63.50;;;;;;4985252;28;20409;-77
2022/01/30 00:15:51;;;;;;;16.77;10.55;;;9.00;63.40;;;;;;4991340;28;20026;-79
2022/01/30 00:23:32;;;;;;;17.38;10.57;;;9.00;63.30;;;;;;4985386;28;20145;-79
2022/01/30 00:25:59;;;;;;;16.55;11.07;;;9.00;63.20;;;;;;4983628;28;20045;-79
2022/01/30 00:28:26;;;;;;;16.65;10.43;;;9.00;63.10;;;;;;4985729;28;20587;-79
2022/01/30 00:30:55;;;;;;;14.43;9.75;;;9.00;63.00;;;;;;4985174;28;20042;-79
2022/01/30 00:33:21;;;;;;;15.48;9.82;;;9.00;63.10;;;;;;4984477;28;20030;-80
2022/01/30 00:35:49;;;;;;;15.10;9.02;;;9.10;63.10;;;;;;4984271;28;20043;-79
2022/01/30 00:38:16;;;;;;;14.82;9.52;;;9.00;63.00;;;;;;4984526;28;20248;-79
2022/01/30 00:40:43;;;;;;;15.10;9.32;;;9.00;63.00;;;;;;5005463;28;20034;-79
2022/01/30 00:43:09;;;;;;;15.35;9.73;;;9.10;62.90;;;;;;4992196;28;20030;-79
2022/01/30 00:45:36;;;;;;;14.80;9.57;;;9.00;62.70;;;;;;4984206;28;20049;-78
2022/01/30 00:48:02;;;;;;;14.25;9.40;;;9.00;62.80;;;;;;4983943;28;20561;-79
2022/01/30 00:50:29;;;;;;;14.90;9.68;;;9.00;62.70;;;;;;4991259;28;20537;-78
2022/01/30 00:52:55;;;;;;;13.73;8.77;;;9.00;62.70;;;;;;4969616;28;20041;-79
2022/01/30 00:55:25;;;;;;;11.25;7.80;;;9.00;62.50;;;;;;4983758;28;20033;-78
2022/01/30 00:57:52;;;;;;;13.27;8.27;;;9.00;62.50;;;;;;4991610;28;20121;-78
2022/01/30 01:00:18;;;;;;;12.57;8.40;;;9.00;62.50;;;;;;4983084;28;20343;-79
2022/01/30 01:02:45;;;;;;;13.38;8.02;;;9.00;62.40;;;;;;4989497;28;20089;-79
2022/01/30 01:05:12;;;;;;;11.90;8.52;;;9.00;62.40;;;;;;4983935;28;20042;-79
2022/01/30 01:07:43;;;;;;;10.52;7.30;;;9.00;62.30;;;;;;4967644;28;20129;-78
2022/01/30 01:10:34;;;;;;;11.38;7.38;;;9.00;62.30;;;;;;4974550;28;20034;-79
2022/01/30 01:23:57;;;;;;;9.38;6.65;;;9.00;62.10;;;;;;4993487;28;20528;-78
2022/01/30 01:26:24;;;;;;;7.15;5.75;;;9.00;62.10;;;;;;4992748;28;20057;-77
2022/01/30 01:28:52;;;;;;;8.57;5.97;;;9.00;62.10;;;;;;4994673;28;20088;-79
2022/01/30 01:31:18;;;;;;;7.60;5.72;;;9.00;62.00;;;;;;5008571;28;20595;-79
2022/01/30 01:36:17;;;;;;;7.32;5.70;;;9.00;62.00;;;;;;4994971;28;20136;-79
2022/01/30 01:38:43;;;;;;;5.75;4.72;;;9.00;61.90;;;;;;4995999;28;20089;-79
2022/01/30 01:41:09;;;;;;;6.53;4.63;;;9.00;61.80;;;;;;4993312;28;20045;-79
2022/01/30 01:43:36;;;;;;;6.85;4.75;;;9.00;61.80;;;;;;4994639;28;20450;-79
2022/01/30 01:46:03;;;;;;;6.70;4.78;;;9.00;61.70;;;;;;4995056;28;20034;-78
2022/01/30 01:48:34;;;;;;;5.13;4.35;;;9.00;61.70;;;;;;4993066;28;20085;-79
2022/01/30 01:51:16;;;;;;;4.90;3.97;;;9.00;61.80;;;;;;4975816;28;20436;-78
2022/01/30 01:53:42;;;;;;;6.05;4.10;;;9.00;61.60;;;;;;4992616;28;20121;-79
2022/01/30 01:56:08;;;;;;;5.45;4.07;;;9.10;61.60;;;;;;4993657;28;20060;-79
2022/01/30 01:58:35;;;;;;;4.90;3.95;;;9.00;61.60;;;;;;4972617;28;20037;-78
2022/01/30 02:01:20;;;;;;;5.38;3.78;;;9.00;61.50;;;;;;4994944;28;20034;-79
2022/01/30 02:03:47;;;;;;;5.57;3.60;;;9.00;61.40;;;;;;4994820;28;20034;-78
2022/01/30 02:06:18;;;;;;;4.93;3.33;;;9.00;61.50;;;;;;4994490;28;20038;-77
2022/01/30 02:08:52;;;;;;;4.18;3.40;;;9.00;61.60;;;;;;4994113;28;20034;-79
2022/01/30 02:11:43;;;;;;;3.85;3.35;;;9.00;61.60;;;;;;4964373;28;20514;-79
2022/01/30 02:27:40;;;;;;;3.88;3.30;;;9.00;61.30;;;;;;4978363;28;20034;-80
2022/01/30 02:30:16;;;;;;;4.47;3.13;;;9.00;61.20;;;;;;4978553;28;20061;-80
2022/01/30 02:32:42;;;;;;;3.55;2.90;;;9.00;61.30;;;;;;4964699;28;20031;-79
2022/01/30 02:35:09;;;;;;;4.43;3.15;;;9.00;61.30;;;;;;4963139;28;20054;-79
2022/01/30 02:37:35;;;;;;;4.22;2.70;;;9.00;61.30;;;;;;4980635;28;20125;-79
2022/01/30 02:40:06;;;;;;;3.58;2.90;;;9.00;61.20;;;;;;4963355;28;20030;-80
2022/01/30 02:42:34;;;;;;;3.95;2.97;;;9.00;61.10;;;;;;4963371;28;20447;-79
2022/01/30 02:45:04;;;;;;;3.97;2.95;;;9.00;61.10;;;;;;4963225;28;20045;-80
2022/01/30 02:47:42;;;;;;;3.47;3.00;;;9.00;61.00;;;;;;4963904;28;20117;-80
2022/01/30 02:50:14;;;;;;;3.42;2.85;;;9.00;61.00;;;;;;4979683;28;20042;-79
2022/01/30 02:52:42;;;;;;;3.90;2.85;;;9.00;61.00;;;;;;4964006;28;20038;-78
2022/01/30 02:55:12;;;;;;;3.35;2.80;;;9.00;60.90;;;;;;4963672;28;20046;-80
2022/01/30 02:57:40;;;;;;;3.33;2.85;;;9.00;60.90;;;;;;4980151;28;20043;-79
2022/01/30 03:00:07;;;;;;;3.20;2.60;;;9.00;60.90;;;;;;4980371;28;20051;-78
2022/01/30 03:02:34;;;;;;;3.38;2.75;;;9.00;60.90;;;;;;4979269;28;20437;-79
2022/01/30 03:05:00;;;;;;;3.17;2.72;;;9.00;60.80;;;;;;4966050;28;20045;-77
2022/01/30 03:07:26;;;;;;;3.30;2.70;;;9.00;60.70;;;;;;4981119;28;20092;-79
2022/01/30 03:09:56;;;;;;;3.83;3.08;;;9.00;60.80;;;;;;4981624;28;20911;-79
2022/01/30 03:12:22;;;;;;;3.45;2.80;;;9.00;60.70;;;;;;4966592;28;20046;-79
2022/01/30 03:14:48;;;;;;;2.92;2.60;;;9.00;60.80;;;;;;4967683;28;20034;-79
2022/01/30 03:17:15;;;;;;;3.70;2.80;;;9.00;60.70;;;;;;4983594;28;20035;-78
2022/01/30 03:19:41;;;;;;;3.58;2.85;;;9.00;60.90;;;;;;4982795;28;20035;-79
2022/01/30 03:22:07;;;;;;;2.75;2.40;;;9.00;60.70;;;;;;4980951;28;20035;-79
2022/01/30 03:24:37;;;;;;;3.15;2.50;;;9.00;60.80;;;;;;4980432;28;20039;-78
2022/01/30 03:27:21;;;;;;;3.67;2.83;;;9.00;60.70;;;;;;4984034;28;20049;-80
2022/01/30 03:30:03;;;;;;;2.38;2.17;;;9.00;60.60;;;;;;4982362;28;20126;-80
2022/01/30 03:32:49;;;;;;;2.75;2.47;;;9.00;60.60;;;;;;4966615;28;20102;-78
2022/01/30 03:35:16;;;;;;;3.00;2.70;;;9.00;60.50;;;;;;4967921;28;20222;-79
2022/01/30 03:37:42;;;;;;;3.28;2.58;;;9.00;60.50;;;;;;4968057;28;20045;-77
2022/01/30 03:40:09;;;;;;;3.55;2.28;;;9.00;60.70;;;;;;4967945;28;20041;-79
2022/01/30 03:42:35;;;;;;;3.40;2.70;;;9.00;60.60;;;;;;4967703;28;20596;-79
2022/01/30 03:45:01;;;;;;;2.83;2.50;;;9.00;60.50;;;;;;4981249;28;20046;-79
2022/01/30 03:47:27;;;;;;;3.20;2.90;;;9.00;60.40;;;;;;4966911;28;20039;-79
2022/01/30 03:49:55;;;;;;;4.88;2.88;;;9.00;60.50;;;;;;4981672;28;20062;-79
2022/01/30 03:52:22;;;;;;;2.88;2.35;;;9.00;60.50;;;;;;4983336;28;20572;-79
2022/01/30 03:54:48;;;;;;;3.53;2.90;;;9.00;60.40;;;;;;4980642;28;20497;-79
2022/01/30 03:57:14;;;;;;;3.08;2.78;;;9.00;60.50;;;;;;4997398;28;20421;-79
2022/01/30 03:59:43;;;;;;;3.00;2.63;;;9.00;60.40;;;;;;4967376;28;20035;-79
2022/01/30 04:02:09;;;;;;;3.10;2.45;;;9.00;60.40;;;;;;4983381;28;20043;-79
2022/01/30 04:04:35;;;;;;;4.07;2.90;;;9.00;60.30;;;;;;4982612;28;20082;-79
2022/01/30 04:07:03;;;;;;;2.72;2.50;;;9.00;60.30;;;;;;4980591;28;20066;-78
2022/01/30 04:09:49;;;;;;;3.42;2.70;;;9.00;60.30;;;;;;4966411;28;20043;-78
2022/01/30 04:12:30;;;;;;;3.97;3.28;;;9.00;60.20;;;;;;4983749;28;20049;-79
2022/01/30 04:15:22;;;;;;;3.03;2.25;;;9.00;60.30;;;;;;4907791;29;20635;-79
2022/01/30 04:18:08;;;;;;;2.97;2.40;;;9.00;60.20;;;;;;4899441;29;20047;-79
2022/01/30 04:20:38;;;;;;;3.70;2.78;;;9.00;60.30;;;;;;4893121;29;20044;-79
2022/01/30 04:23:39;;;;;;;3.15;2.55;;;9.00;60.20;;;;;;4895975;29;20059;-78
2022/01/30 04:26:23;;;;;;;2.97;2.33;;;9.00;60.30;;;;;;4908470;29;20477;-78
2022/01/30 04:29:12;;;;;;;2.47;2.28;;;9.00;60.30;;;;;;4879258;29;20055;-78
2022/01/30 04:31:50;;;;;;;3.28;2.38;;;9.00;60.30;;;;;;4863622;29;20116;-79
2022/01/30 04:34:52;;;;;;;2.30;2.10;;;9.00;60.30;;;;;;4864214;29;20514;-80
2022/01/30 04:38:03;;;;;;;2.80;2.35;;;9.00;60.30;;;;;;4863073;29;20123;-79
2022/01/30 04:41:26;;;;;;;2.53;2.20;;;9.00;60.30;;;;;;4864131;29;20080;-80
2022/01/30 04:53:36;;;;;;;3.00;2.38;;;8.90;60.20;;;;;;4925198;29;20466;-79
2022/01/30 05:08:12;;;;;;;2.80;2.08;;;8.90;60.00;;;;;;4965644;28;20126;-79
2022/01/30 05:11:07;;;;;;;2.25;2.03;;;9.00;60.10;;;;;;4972052;28;20129;-80
2022/01/30 05:13:49;;;;;;;3.17;2.10;;;8.90;60.00;;;;;;4991831;28;20399;-79
2022/01/30 05:16:33;;;;;;;3.65;2.38;;;9.00;60.10;;;;;;5004432;28;20058;-79
2022/01/30 05:19:14;;;;;;;3.17;2.00;;;8.90;60.00;;;;;;4991617;28;20034;-79
2022/01/30 05:21:56;;;;;;;2.58;2.17;;;8.90;60.00;;;;;;4985140;28;20193;-79
2022/01/30 05:24:38;;;;;;;2.30;2.10;;;8.90;59.90;;;;;;4991991;28;20046;-80
2022/01/30 05:27:15;;;;;;;2.03;1.75;;;8.90;59.90;;;;;;4983366;28;20089;-79
2022/01/30 05:29:41;;;;;;;2.97;2.17;;;8.90;59.90;;;;;;4983360;28;20132;-80
2022/01/30 05:32:15;;;;;;;2.20;1.85;;;8.90;59.90;;;;;;4991520;28;20038;-79
2022/01/30 05:35:00;;;;;;;2.25;1.77;;;8.90;59.80;;;;;;4989298;28;20042;-78
2022/01/30 05:37:58;;;;;;;1.92;1.75;;;9.00;60.00;;;;;;4972780;28;20057;-79
2022/01/30 05:40:45;;;;;;;2.53;2.00;;;8.90;60.00;;;;;;4926564;29;20472;-79
2022/01/30 05:43:38;;;;;;;2.15;1.90;;;8.90;60.00;;;;;;4926109;29;20070;-79
2022/01/30 05:46:39;;;;;;;2.20;2.00;;;8.90;60.00;;;;;;4926192;29;20059;-79
2022/01/30 05:49:25;;;;;;;1.98;1.80;;;8.90;59.90;;;;;;4925922;29;20411;-79
2022/01/30 05:52:09;;;;;;;2.10;1.90;;;8.90;59.90;;;;;;4926667;29;20090;-81
2022/01/30 05:54:46;;;;;;;2.05;1.85;;;9.00;60.10;;;;;;4894880;29;20039;-81
2022/01/30 05:57:12;;;;;;;1.65;1.55;;;9.00;59.90;;;;;;4910891;29;20066;-80
2022/01/30 05:59:40;;;;;;;2.42;2.22;;;9.00;59.90;;;;;;4910020;29;20133;-80
2022/01/30 06:02:17;;;;;;;2.10;1.90;;;9.00;59.80;;;;;;4910799;29;20052;-79
2022/01/30 06:04:43;;;;;;;2.92;2.00;;;9.00;59.80;;;;;;4909278;29;20055;-79
2022/01/30 06:07:10;;;;;;;2.17;1.92;;;9.00;59.90;;;;;;4910776;29;20098;-80
2022/01/30 06:09:37;;;;;;;2.28;1.90;;;9.00;59.80;;;;;;4910807;29;20040;-80
2022/01/30 06:12:04;;;;;;;2.83;2.20;;;9.00;59.90;;;;;;4926040;29;20043;-80
2022/01/30 06:14:31;;;;;;;1.67;1.58;;;9.00;59.80;;;;;;4925061;29;20032;-79
2022/01/30 06:17:06;;;;;;;1.83;1.73;;;9.00;59.60;;;;;;4921474;28;20141;-79
2022/01/30 06:19:50;;;;;;;1.38;1.23;;;9.00;59.60;;;;;;4984832;28;20038;-79
2022/01/30 06:22:48;;;;;;;1.70;1.60;;;9.00;59.50;;;;;;4972183;28;20153;-80
2022/01/30 06:25:33;;;;;;;2.15;1.55;;;9.00;59.70;;;;;;4984915;28;20030;-80
2022/01/30 06:28:17;;;;;;;1.77;1.48;;;9.00;59.70;;;;;;4983372;28;20699;-80
2022/01/30 06:31:02;;;;;;;1.63;1.52;;;9.00;59.50;;;;;;4983621;28;20514;-79
2022/01/30 06:33:28;;;;;;;1.27;1.17;;;9.00;59.60;;;;;;4982777;28;20568;-79
2022/01/30 06:36:23;;;;;;;1.83;1.73;;;9.00;59.50;;;;;;4911315;29;20044;-80
2022/01/30 06:39:15;;;;;;;1.60;1.50;;;9.00;59.60;;;;;;4911904;29;20044;-79
2022/01/30 06:41:52;;;;;;;1.60;1.50;;;9.00;59.50;;;;;;4918495;29;20039;-79
2022/01/30 06:44:18;;;;;;;1.45;1.25;;;9.00;59.50;;;;;;4916578;29;20468;-79
2022/01/30 06:47:04;;;;;;;1.50;1.40;;;9.00;59.50;;;;;;4914602;29;20044;-78
2022/01/30 06:49:30;;;;;;;1.83;1.10;;;9.00;59.50;;;;;;4916581;29;20032;-78
2022/01/30 06:52:25;;;;;;;1.50;1.40;;;9.00;59.50;;;;;;4901810;29;20119;-80
2022/01/30 06:55:11;;;;;;;;;;;9.00;59.50;;;;;;4903060;29;20075;-80
2022/01/30 06:57:55;;;;;;;1.52;1.30;;;9.00;59.50;;;;;;4918716;29;19915;-80
2022/01/30 07:00:40;;;;;;;1.45;1.27;;;9.00;59.40;;;;;;4915609;29;20048;-80
2022/01/30 07:03:44;;;;;;;1.85;1.38;;;9.00;59.40;;;;;;4875130;29;20037;-80
2022/01/30 07:06:45;;;;;;;1.40;1.30;;;9.00;59.40;;;;;;4904735;29;20047;-78
2022/01/30 07:09:11;;;;;;;1.38;1.13;;;9.00;59.50;;;;;;4916647;29;20058;-80
2022/01/30 07:11:37;;;;;;;1.40;1.30;;;9.00;59.70;;;;;;4918446;29;20067;-80
2022/01/30 07:14:03;;;;;;;1.30;1.20;;;9.00;59.50;;;;;;4989493;28;20335;-81
2022/01/30 07:16:29;;;;;;;1.33;1.23;;;9.00;59.40;;;;;;4989119;28;20516;-80
2022/01/30 07:18:55;;;;;;;2.95;1.30;;;9.00;59.40;;;;;;4989061;28;20031;-80
2022/01/30 07:21:21;;;;;;;0.95;0.95;;;9.00;59.50;;;;;;4995675;28;20050;-79
2022/01/30 07:23:47;;;;;;;1.35;0.93;;;9.00;59.50;;;;;;4995645;28;20034;-80
2022/01/30 07:26:13;;;;;;;1.00;0.90;;;9.00;59.50;;;;;;4988037;28;20042;-78
2022/01/30 07:28:39;;;;;;;1.08;0.98;;;9.00;59.40;;;;;;4978416;28;20441;-80
2022/01/30 07:31:05;;;;;;;1.13;0.98;;;9.00;59.50;;;;;;4988250;28;20418;-79
2022/01/30 07:33:33;;;;;;;1.10;1.00;;;9.00;59.50;;;;;;4977061;28;20418;-79
2022/01/30 07:36:00;;;;;;;0.80;0.80;;;9.00;59.40;;;;;;4988157;28;20030;-78
2022/01/30 07:38:27;;;;;;;1.05;0.90;;;9.00;59.30;;;;;;4988974;28;20072;-79
2022/01/30 07:40:53;;;;;;;1.27;1.00;;;9.00;59.40;;;;;;4988627;28;20405;-80
2022/01/30 07:43:19;;;;;;;1.13;1.08;;;9.10;59.40;;;;;;4988036;28;20030;-80
2022/01/30 07:45:54;;;;;;;0.80;0.80;;;9.00;59.30;;;;;;4977287;28;20065;-78
2022/01/30 07:48:19;;;;;;;1.25;1.00;;;9.00;59.30;;;;;;4988294;28;20066;-79
2022/01/30 07:50:45;;;;;;;1.83;0.88;;;9.00;59.30;;;;;;4988697;28;20132;-79
2022/01/30 07:53:11;;;;;;;1.10;1.00;;;9.00;59.40;;;;;;4989510;28;20129;-80
2022/01/30 07:55:37;;;;;;;0.95;0.95;;;9.00;59.30;;;;;;4987641;28;20113;-80
2022/01/30 07:58:03;;;;;;;1.20;1.08;;;9.00;59.30;;;;;;4988216;28;20038;-81
2022/01/30 08:00:29;;;;;;;1.20;1.10;;;9.00;59.20;;;;;;4986999;28;20511;-80
2022/01/30 08:02:55;;;;;;;0.90;0.90;;;9.00;59.20;;;;;;4987631;28;20038;-77
2022/01/30 08:05:21;;;;;;;1.17;0.93;;;9.00;59.20;;;;;;4994923;28;20076;-81
2022/01/30 08:07:47;;;;;;;2.45;1.10;;;9.00;59.20;;;;;;4987377;28;20030;-81
2022/01/30 08:10:13;;;;;;;1.27;0.90;;;9.10;59.20;;;;;;4989052;28;20030;-80
2022/01/30 08:12:39;;;;;;;0.90;0.85;;;9.00;59.00;;;;;;4995622;28;20113;-78
2022/01/30 08:15:05;;;;;;;1.05;0.90;;;9.10;59.00;;;;;;4992366;28;20027;-77
2022/01/30 08:17:33;;;;;;;0.80;0.80;;;9.10;59.10;;;;;;4977811;28;20042;-78
2022/01/30 08:19:59;;;;;;;1.02;0.90;;;9.10;59.10;;;;;;4995156;28;20419;-78
2022/01/30 08:22:29;;;;;;;1.63;1.05;;;9.10;58.90;;;;;;4996166;28;20041;-77
2022/01/30 08:24:55;;;;;;;1.02;0.93;;;9.10;59.00;;;;;;4995862;28;20436;-81
2022/01/30 08:27:21;;;;;;;1.10;0.85;;;9.10;59.00;;;;;;4991745;28;20082;-79
2022/01/30 08:29:47;;;;;;;0.90;0.90;;;9.10;59.10;;;;;;4959794;28;20094;-78
2022/01/30 08:32:13;;;;;;;1.20;1.10;;;9.10;59.00;;;;;;4989201;28;20034;-80
2022/01/30 08:34:42;;;;;;;1.42;1.10;;;9.10;59.10;;;;;;4987823;28;20124;-78
2022/01/30 08:37:08;;;;;;;2.15;1.17;;;9.10;59.00;;;;;;4989785;28;20029;-79
2022/01/30 08:39:34;;;;;;;2.38;1.30;;;9.10;59.10;;;;;;4988176;28;20034;-78
2022/01/30 08:42:00;;;;;;;1.13;1.02;;;9.10;59.00;;;;;;4987793;28;20041;-78
2022/01/30 08:44:26;;;;;;;3.03;0.95;;;9.10;58.90;;;;;;4995007;28;20092;-78
2022/01/30 08:46:52;;;;;;;0.85;0.85;;;9.10;58.90;;;;;;4994135;28;20042;-80
2022/01/30 08:49:18;;;;;;;2.20;0.90;;;9.10;58.80;;;;;;4994119;28;20034;-79
2022/01/30 08:51:44;;;;;;;3.30;1.30;;;9.10;58.80;;;;;;4996052;28;20030;-79
2022/01/30 08:54:10;;;;;;;2.40;1.10;;;9.10;58.60;;;;;;4995919;28;20070;-80
2022/01/30 08:56:36;;;;;;;4.30;1.20;;;9.10;58.70;;;;;;4976936;28;20043;-79
2022/01/30 08:59:02;;;;;;;3.17;1.50;;;9.10;58.70;;;;;;4978871;28;20070;-79
2022/01/30 09:01:32;;;;;;;4.10;1.77;;;9.10;58.70;;;;;;4993562;28;20069;-78
2022/01/30 09:03:59;;;;;;;6.72;2.25;;;9.10;58.80;;;;;;4994297;28;20054;-78
2022/01/30 09:06:25;;;;;;;7.03;2.03;;;9.10;58.80;;;;;;4995147;28;20049;-79
2022/01/30 09:08:51;;;;;;;6.78;1.90;;;9.10;59.00;;;;;;4994463;28;20030;-79
2022/01/30 09:11:17;;;;;;;6.70;2.13;;;9.10;59.20;;;;;;4987093;28;20141;-80
2022/01/30 09:13:43;;;;;;;7.47;2.42;;;9.10;59.50;;;;;;4985901;28;20038;-81
2022/01/30 09:16:09;;;;;;;4.68;2.05;;;9.10;59.50;;;;;;4974405;28;20049;-80
2022/01/30 09:18:38;;;;;;;5.10;1.85;;;9.10;59.70;;;;;;4983516;28;20037;-79
2022/01/30 09:21:04;;;;;;;6.20;2.38;;;9.10;59.80;;;;;;4984850;28;20505;-79
2022/01/30 09:23:31;;;;;;;5.13;2.15;;;9.20;60.10;;;;;;4985420;28;20042;-80
2022/01/30 09:25:57;;;;;;;5.57;1.88;;;9.20;60.10;;;;;;4984101;28;20034;-79
2022/01/30 09:28:23;;;;;;;5.18;1.50;;;9.10;60.10;;;;;;4990594;28;20069;-78
2022/01/30 09:30:49;;;;;;;4.53;2.00;;;9.20;60.00;;;;;;4984792;28;20036;-79
2022/01/30 09:33:14;;;;;;;5.43;1.90;;;9.20;60.00;;;;;;4972513;28;20030;-79
2022/01/30 09:35:41;;;;;;;3.92;1.45;;;9.10;59.90;;;;;;4984463;28;20038;-79
2022/01/30 09:38:07;;;;;;;3.00;1.65;;;9.20;59.90;;;;;;5004287;28;20089;-79
2022/01/30 09:40:33;;;;;;;3.15;1.77;;;9.20;60.10;;;;;;4983194;28;20030;-78
2022/01/30 09:42:59;;;;;;;4.00;1.58;;;9.20;60.40;;;;;;4985033;28;20041;-79
2022/01/30 09:45:28;;;;;;;5.38;1.55;;;9.20;60.40;;;;;;4974620;28;20034;-79
2022/01/30 09:47:56;;;;;;;2.33;1.20;;;9.20;60.20;;;;;;4973153;28;20181;-80
2022/01/30 09:50:26;;;;;;;4.85;1.58;;;9.20;60.00;;;;;;4977138;28;20504;-79
2022/01/30 09:52:53;;;;;;;3.60;1.30;;;9.20;60.10;;;;;;4990177;28;20042;-79
2022/01/30 09:55:19;;;;;;;3.15;1.40;;;9.20;60.00;;;;;;4992101;28;20038;-78
2022/01/30 09:57:47;;;;;;;5.07;1.65;;;9.20;60.10;;;;;;4986054;28;20469;-80
2022/01/30 10:00:14;;;;;;;5.05;1.80;;;9.20;60.00;;;;;;4983359;28;20501;-78
2022/01/30 10:02:43;;;;;;;2.75;1.50;;;9.20;60.30;;;;;;4979531;28;20045;-78
2022/01/30 10:05:12;;;;;;;2.85;1.30;;;9.20;60.20;;;;;;4982138;28;20038;-79
2022/01/30 10:07:53;;;;;;;3.13;1.30;;;9.20;60.10;;;;;;4966334;28;20038;-79
2022/01/30 10:10:24;;;;;;;1.88;1.30;;;9.20;60.10;;;;;;4982821;28;20051;-79
2022/01/30 10:13:11;;;;;;;2.88;1.35;;;9.20;59.90;;;;;;4984487;28;20222;-79
2022/01/30 10:15:57;;;;;;;3.42;1.17;;;9.20;59.60;;;;;;4988119;28;20030;-80
2022/01/30 10:18:26;;;;;;;1.90;1.10;;;9.30;59.80;;;;;;4987765;28;20501;-81
2022/01/30 10:20:53;;;;;;;4.53;1.30;;;9.30;60.00;;;;;;4999965;28;20050;-88
2022/01/30 10:23:19;;;;;;;3.22;1.25;;;9.30;59.80;;;;;;5015738;28;20034;-91
2022/01/30 10:25:51;;;;;;;2.72;1.13;;;9.30;59.50;;;;;;4971295;28;20084;-92
2022/01/30 10:28:26;;;;;;;1.75;1.20;;;9.30;59.40;;;;;;4975321;28;20038;-90
2022/01/30 10:30:54;;;;;;;;;;;9.30;59.50;;;;;;4991797;28;20030;-90
2022/01/30 10:33:42;;;;;;;3.67;1.45;;;9.30;59.70;;;;;;4979337;28;19929;-88
2022/01/30 10:36:10;;;;;;;4.57;1.20;;;9.30;59.70;;;;;;4982073;28;20041;-89
2022/01/30 10:38:46;;;;;;;2.90;1.20;;;9.30;59.60;;;;;;4992692;28;20026;-89
2022/01/30 10:41:19;;;;;;;2.55;1.10;;;9.30;59.50;;;;;;4948459;28;20034;-87
2022/01/30 10:43:50;;;;;;;2.20;1.30;;;9.30;59.40;;;;;;4986439;28;20659;-87
2022/01/30 10:46:25;;;;;;;3.20;1.23;;;9.40;59.70;;;;;;4959413;28;20045;-86
2022/01/30 10:49:02;;;;;;;4.73;1.73;;;9.40;59.70;;;;;;4959401;28;20406;-85
2022/01/30 10:51:30;;;;;;;3.28;1.23;;;9.40;59.80;;;;;;4982024;28;20064;-86
2022/01/30 10:53:58;;;;;;;2.45;1.60;;;9.40;59.80;;;;;;4989881;28;20035;-81
2022/01/30 10:56:27;;;;;;;2.85;1.23;;;9.40;60.40;;;;;;4984617;28;20089;-83
2022/01/30 10:59:12;;;;;;;5.05;1.38;;;9.40;59.80;;;;;;4990441;28;20040;-83
2022/01/30 11:01:43;;;;;;;3.08;1.63;;;9.40;59.70;;;;;;4977789;28;20066;-82
2022/01/30 11:04:26;;;;;;;3.47;1.38;;;9.40;59.90;;;;;;4986547;28;20664;-82
2022/01/30 11:06:55;;;;;;;2.03;1.25;;;9.40;60.10;;;;;;4986244;28;20121;-82
2022/01/30 11:09:28;;;;;;;6.32;1.60;;;9.40;60.00;;;;;;4985149;28;20022;-80
2022/01/30 11:12:01;;;;;;;1.65;1.42;;;9.40;60.00;;;;;;4974679;28;20210;-82
2022/01/30 11:14:38;;;;;;;2.28;1.13;;;9.40;60.00;;;;;;4974215;28;20066;-81
2022/01/30 11:17:08;;;;;;;2.45;1.42;;;9.40;60.00;;;;;;4962528;28;20073;-83
2022/01/30 11:19:38;;;;;;;2.05;1.20;;;9.40;60.10;;;;;;4958296;28;20121;-83
2022/01/30 11:22:11;;;;;;;3.72;1.60;;;9.40;60.20;;;;;;4973944;28;20045;-83
2022/01/30 11:24:44;;;;;;;3.80;1.40;;;9.40;60.10;;;;;;4970544;28;21875;-82
2022/01/30 11:27:11;;;;;;;2.50;1.23;;;9.40;60.20;;;;;;4961181;28;20034;-81
2022/01/30 11:29:37;;;;;;;4.32;1.77;;;9.40;60.10;;;;;;4974590;28;20030;-81
2022/01/30 11:32:07;;;;;;;1.75;1.20;;;9.40;60.00;;;;;;4974614;28;20395;-82
2022/01/30 11:34:39;;;;;;;2.30;1.35;;;9.40;60.00;;;;;;4973759;28;21220;-81
2022/01/30 11:37:07;;;;;;;2.72;1.40;;;9.40;60.00;;;;;;4969720;28;20036;-83
2022/01/30 11:39:35;;;;;;;2.28;1.40;;;9.50;60.00;;;;;;4967680;28;20125;-85
2022/01/30 11:42:21;;;;;;;1.92;1.40;;;9.40;60.00;;;;;;4967789;28;20472;-84
2022/01/30 11:45:10;;;;;;;1.52;1.30;;;9.40;60.00;;;;;;4966095;28;20034;-83
2022/01/30 11:47:58;;;;;;;2.58;1.40;;;9.40;59.80;;;;;;4956557;28;20078;-81
2022/01/30 11:50:33;;;;;;;1.42;1.23;;;9.40;59.90;;;;;;4966423;28;20521;-81
2022/01/30 11:52:59;;;;;;;1.02;0.90;;;9.40;59.80;;;;;;4966415;28;20042;-82
2022/01/30 11:56:00;;;;;;;1.80;1.50;;;9.50;59.80;;;;;;4966867;28;20035;-81
2022/01/30 11:58:56;;;;;;;1.65;1.20;;;9.50;59.90;;;;;;4952312;28;20066;-82
2022/01/30 12:01:25;;;;;;;1.70;1.13;;;9.50;59.80;;;;;;4960213;28;20033;-81
2022/01/30 12:04:02;;;;;;;2.15;1.20;;;9.50;59.60;;;;;;4972544;28;20046;-79
2022/01/30 12:06:35;;;;;;;2.05;1.35;;;9.50;59.50;;;;;;4970417;28;20077;-79
2022/01/30 12:09:27;;;;;;;1.90;1.35;;;9.50;59.30;;;;;;4968421;28;20033;-80
2022/01/30 12:11:58;;;;;;;1.60;1.20;;;9.40;59.30;;;;;;4976083;28;20078;-79
2022/01/30 12:14:24;;;;;;;2.38;1.85;;;9.40;59.10;;;;;;4979473;28;20375;-80
2022/01/30 12:16:57;;;;;;;5.85;2.42;;;9.50;59.10;;;;;;4977279;28;20045;-81
2022/01/30 12:19:47;;;;;;;3.88;1.90;;;9.50;58.90;;;;;;4981011;28;20033;-80
2022/01/30 12:22:16;;;;;;;5.85;2.33;;;9.50;58.90;;;;;;4985148;28;20050;-80
2022/01/30 12:24:47;;;;;;;5.00;2.70;;;9.50;58.90;;;;;;4980872;28;20063;-80
2022/01/30 12:27:14;;;;;;;4.05;2.30;;;9.40;58.90;;;;;;4977379;28;20069;-79
2022/01/30 12:29:43;;;;;;;3.83;2.25;;;9.50;58.90;;;;;;4979194;28;20039;-79
2022/01/30 12:32:24;;;;;;;4.57;2.40;;;9.50;58.70;;;;;;4977364;28;20026;-79
2022/01/30 12:34:56;;;;;;;10.07;3.03;;;9.50;58.50;;;;;;4966915;28;20688;-79
2022/01/30 12:37:31;;;;;;;4.13;2.25;;;9.50;58.90;;;;;;4975985;28;20034;-79
2022/01/30 12:39:59;;;;;;;2.77;2.13;;;9.50;58.60;;;;;;4982718;28;20049;-78
2022/01/30 12:42:27;;;;;;;4.25;2.17;;;9.50;58.60;;;;;;4983906;28;20081;-80
2022/01/30 12:44:59;;;;;;;4.25;2.33;;;9.50;58.50;;;;;;4976137;28;20038;-79
2022/01/30 12:47:26;;;;;;;6.00;2.38;;;9.50;58.40;;;;;;4983553;28;20030;-81
2022/01/30 12:49:56;;;;;;;3.08;1.88;;;9.50;58.30;;;;;;4978755;28;20061;-80
2022/01/30 12:55:00;;;;;;;3.75;1.67;;;9.50;58.10;;;;;;4981092;28;20027;-79
2022/01/30 12:57:27;;;;;;;3.13;1.80;;;9.50;58.20;;;;;;4972187;28;20037;-80
2022/01/30 12:59:57;;;;;;;3.05;1.90;;;9.40;58.10;;;;;;4974858;28;20034;-80
2022/01/30 13:02:29;;;;;;;3.65;2.10;;;9.50;58.30;;;;;;4962203;28;20066;-80
2022/01/30 13:05:00;;;;;;;4.53;2.35;;;9.40;58.10;;;;;;4976893;28;20136;-78
2022/01/30 13:07:26;;;;;;;3.92;2.00;;;9.50;58.10;;;;;;4964904;28;20046;-79
2022/01/30 13:10:11;;;;;;;4.18;2.10;;;9.50;57.90;;;;;;4974639;28;20057;-79
2022/01/30 13:12:38;;;;;;;3.05;2.08;;;9.50;57.80;;;;;;4984439;28;20126;-81
2022/01/30 13:15:10;;;;;;;3.45;2.13;;;9.50;57.60;;;;;;4983222;28;20564;-78
2022/01/30 13:17:36;;;;;;;2.45;1.70;;;9.40;57.50;;;;;;4980375;28;20129;-80
2022/01/30 13:20:04;;;;;;;3.78;2.40;;;9.40;57.50;;;;;;4984056;28;20037;-82
2022/01/30 13:22:37;;;;;;;2.80;2.30;;;9.40;57.80;;;;;;4988359;28;20057;-80
2022/01/30 13:25:15;;;;;;;2.42;2.22;;;9.50;57.70;;;;;;4984802;28;20061;-81
2022/01/30 13:27:43;;;;;;;2.65;2.20;;;9.40;58.30;;;;;;4989804;28;20035;-82
2022/01/30 13:30:10;;;;;;;2.70;2.28;;;9.50;57.70;;;;;;4984553;28;20036;-81
2022/01/30 13:32:39;;;;;;;3.28;2.50;;;9.50;57.90;;;;;;4984552;28;20044;-82
2022/01/30 13:35:16;;;;;;;2.92;2.10;;;9.50;57.90;;;;;;4982624;28;20057;-81
2022/01/30 13:37:43;;;;;;;3.55;2.20;;;9.40;58.10;;;;;;4984378;28;20058;-81
2022/01/30 13:40:23;;;;;;;2.97;2.10;;;9.40;58.10;;;;;;4982409;28;20034;-80
2022/01/30 13:48:05;;;;;;;2.53;2.25;;;9.40;58.80;;;;;;4983045;28;20506;-79
2022/01/30 13:50:37;;;;;;;6.25;2.60;;;9.40;59.00;;;;;;4981946;28;20088;-81
2022/01/30 13:53:08;;;;;;;2.72;2.10;;;9.40;59.10;;;;;;4982309;28;20512;-79
2022/01/30 13:55:38;;;;;;;4.03;2.70;;;9.40;59.30;;;;;;4981893;28;20085;-81
2022/01/30 13:58:04;;;;;;;3.85;2.20;;;9.40;59.50;;;;;;4972716;28;20108;-80
2022/01/30 14:00:38;;;;;;;4.75;2.90;;;9.40;59.80;;;;;;4984146;28;20038;-80
2022/01/30 14:03:06;;;;;;;4.40;2.65;;;9.40;60.40;;;;;;4983699;28;20511;-82
2022/01/30 14:05:37;;;;;;;6.32;2.80;;;9.40;60.50;;;;;;4971110;28;20038;-84
2022/01/30 14:08:13;;;;;;;4.60;3.03;;;9.40;60.90;;;;;;4974092;28;20042;-81
2022/01/30 14:10:41;;;;;;;5.38;3.17;;;9.40;61.10;;;;;;4958297;28;20046;-84
2022/01/30 14:13:16;;;;;;;6.55;2.83;;;9.50;61.40;;;;;;5002198;28;20057;-82
2022/01/30 14:15:42;;;;;;;;;;;9.50;61.30;;;;;;4984752;28;20033;-81
2022/01/30 14:18:20;;;;;;;3.40;2.88;;;9.50;61.40;;;;;;4973500;28;19914;-82
2022/01/30 14:20:50;;;;;;;4.63;3.10;;;9.40;61.30;;;;;;4980856;28;20081;-84
2022/01/30 14:23:20;;;;;;;4.95;2.78;;;9.50;61.40;;;;;;4977532;28;20061;-81
2022/01/30 14:25:49;;;;;;;3.92;3.17;;;9.40;61.20;;;;;;4984871;28;20417;-82